createdAt,value
2023-05-19T00:01:13.634Z,6.90
2023-05-19T00:03:52.477Z,7.63
2023-05-19T00:06:23.494Z,7.80
2023-05-19T00:08:52.272Z,6.20
2023-05-19T00:11:22.401Z,6.87
2023-05-19T00:13:52.316Z,6.90
2023-05-19T00:16:20.925Z,6.50
2023-05-19T00:18:49.351Z,7.20
2023-05-19T00:21:17.646Z,6.13
2023-05-19T00:23:45.933Z,7.20
2023-05-19T00:26:14.482Z,7.90
2023-05-19T00:28:42.795Z,6.43
2023-05-19T00:31:12.394Z,7.40
2023-05-19T00:33:40.863Z,8.17
2023-05-19T00:36:09.547Z,6.73
2023-05-19T00:38:38.425Z,7.43
2023-05-19T00:41:07.536Z,7.53
2023-05-19T00:43:35.984Z,7.07
2023-05-19T00:46:04.705Z,6.73
2023-05-19T00:48:34.328Z,6.67
2023-05-19T00:51:04.638Z,7.47
2023-05-19T00:53:33.677Z,7.03
2023-05-19T00:56:02.475Z,6.73
2023-05-19T00:58:32.680Z,5.90
2023-05-19T01:01:04.178Z,6.80
2023-05-19T01:03:36.107Z,7.80
2023-05-19T01:06:05.863Z,6.80
2023-05-19T01:08:34.250Z,6.53
2023-05-19T01:11:02.599Z,7.83
2023-05-19T01:13:31.110Z,6.93
2023-05-19T01:16:02.200Z,6.67
2023-05-19T01:18:34.241Z,5.80
2023-05-19T01:21:11.673Z,6.83
2023-05-19T01:23:44.906Z,7.73
2023-05-19T01:26:28.729Z,6.63
2023-05-19T01:29:22.896Z,6.07
2023-05-19T01:31:52.744Z,6.47
2023-05-19T01:34:22.484Z,6.20
2023-05-19T01:36:52.244Z,5.90
2023-05-19T01:39:21.157Z,5.50
2023-05-19T01:41:50.032Z,6.17
2023-05-19T01:44:18.427Z,6.07
2023-05-19T01:46:46.904Z,5.37
2023-05-19T01:49:16.454Z,6.17
2023-05-19T01:51:44.687Z,6.43
2023-05-19T01:54:12.952Z,5.20
2023-05-19T01:56:43.616Z,5.57
2023-05-19T01:59:18.418Z,5.80
2023-05-19T02:01:51.363Z,5.63
2023-05-19T02:04:25.955Z,6.37
2023-05-19T02:06:57.005Z,6.30
2023-05-19T02:09:27.208Z,5.90
2023-05-19T02:11:57.202Z,6.03
2023-05-19T02:14:27.188Z,5.30
2023-05-19T02:16:55.832Z,5.57
2023-05-19T02:19:26.731Z,6.13
2023-05-19T02:21:55.261Z,5.40
2023-05-19T02:24:23.731Z,5.70
2023-05-19T02:26:52.452Z,5.40
2023-05-19T02:29:20.779Z,6.13
2023-05-19T02:31:49.269Z,5.87
2023-05-19T02:34:17.563Z,5.03
2023-05-19T02:36:49.848Z,5.40
2023-05-19T02:39:18.229Z,5.87
2023-05-19T02:41:46.475Z,4.90
2023-05-19T02:44:14.954Z,5.27
2023-05-19T02:46:43.521Z,5.23
2023-05-19T02:49:11.858Z,4.97
2023-05-19T02:51:40.050Z,4.70
2023-05-19T02:54:09.618Z,4.50
2023-05-19T02:56:37.871Z,5.37
2023-05-19T02:59:06.128Z,5.50
2023-05-19T03:01:34.482Z,4.93
2023-05-19T03:04:02.842Z,5.27
2023-05-19T03:06:32.780Z,5.47
2023-05-19T03:09:01.017Z,4.67
2023-05-19T03:11:30.937Z,4.90
2023-05-19T03:13:59.306Z,5.00
2023-05-19T03:16:28.125Z,5.03
2023-05-19T03:18:57.519Z,5.17
2023-05-19T03:21:25.906Z,4.90
2023-05-19T03:23:54.659Z,4.90
2023-05-19T03:26:24.542Z,4.83
2023-05-19T03:28:54.398Z,4.53
2023-05-19T03:31:22.632Z,5.27
2023-05-19T03:33:50.939Z,5.30
2023-05-19T03:36:19.199Z,5.80
2023-05-19T03:38:47.435Z,4.73
2023-05-19T03:41:15.674Z,5.70
2023-05-19T03:43:43.935Z,5.73
2023-05-19T03:46:13.517Z,5.87
2023-05-19T03:48:41.815Z,5.73
2023-05-19T03:51:10.057Z,4.60
2023-05-19T03:53:38.328Z,5.70
2023-05-19T03:56:07.503Z,5.70
2023-05-19T03:58:36.999Z,6.60
2023-05-19T04:01:05.209Z,5.97
2023-05-19T04:03:34.884Z,5.43
2023-05-19T04:06:03.136Z,5.30
2023-05-19T04:08:32.136Z,5.97
2023-05-19T04:11:00.397Z,6.13
2023-05-19T04:13:28.608Z,5.83
2023-05-19T04:15:57.006Z,5.33
2023-05-19T04:18:28.221Z,5.30
2023-05-19T04:20:58.584Z,6.67
2023-05-19T04:23:26.819Z,4.47
2023-05-19T04:25:57.086Z,5.27
2023-05-19T04:28:25.407Z,6.13
2023-05-19T04:30:53.666Z,6.00
2023-05-19T04:33:21.966Z,6.20
2023-05-19T04:35:50.550Z,5.90
2023-05-19T04:38:22.077Z,5.67
2023-05-19T04:40:52.003Z,5.07
2023-05-19T04:43:22.245Z,6.50
2023-05-19T04:45:51.461Z,5.27
2023-05-19T04:48:21.618Z,6.03
2023-05-19T04:50:49.855Z,4.70
2023-05-19T04:53:18.238Z,4.80
2023-05-19T04:55:47.857Z,5.80
2023-05-19T04:58:17.036Z,5.40
2023-05-19T05:00:45.314Z,4.27
2023-05-19T05:03:14.451Z,5.00
2023-05-19T05:05:42.806Z,5.50
2023-05-19T05:08:11.773Z,4.70
2023-05-19T05:10:40.017Z,6.10
2023-05-19T05:13:11.702Z,5.70
2023-05-19T05:15:40.422Z,5.17
2023-05-19T05:18:09.077Z,5.47
2023-05-19T05:20:37.661Z,8.67
2023-05-19T05:23:06.754Z,8.70
2023-05-19T05:25:35.431Z,7.17
2023-05-19T05:28:05.291Z,4.70
2023-05-19T05:30:35.294Z,6.30
2023-05-19T05:33:03.724Z,6.90
2023-05-19T05:35:32.263Z,6.30
2023-05-19T05:38:02.755Z,4.17
2023-05-19T05:40:31.119Z,5.60
2023-05-19T05:42:59.938Z,6.70
2023-05-19T05:45:28.564Z,5.70
2023-05-19T05:47:58.681Z,6.13
2023-05-19T05:50:27.394Z,6.73
2023-05-19T05:52:55.997Z,7.10
2023-05-19T05:55:24.818Z,7.37
2023-05-19T05:57:53.038Z,6.17
2023-05-19T06:00:22.429Z,6.43
2023-05-19T06:02:51.456Z,5.33
2023-05-19T06:05:21.552Z,5.00
2023-05-19T06:07:50.052Z,4.60
2023-05-19T06:10:18.325Z,5.63
2023-05-19T06:12:46.626Z,5.10
2023-05-19T06:15:14.909Z,3.87
2023-05-19T06:17:43.214Z,4.67
2023-05-19T06:20:13.028Z,5.87
2023-05-19T06:22:42.606Z,5.27
2023-05-19T06:25:10.933Z,4.13
2023-05-19T06:27:40.420Z,4.13
2023-05-19T06:30:09.567Z,3.50
2023-05-19T06:32:37.889Z,5.70
2023-05-19T06:35:06.647Z,3.73
2023-05-19T06:37:34.985Z,5.13
2023-05-19T06:40:05.657Z,5.80
2023-05-19T06:42:33.901Z,4.07
2023-05-19T06:45:02.114Z,3.70
2023-05-19T06:47:30.439Z,5.17
2023-05-19T06:49:58.673Z,4.20
2023-05-19T06:52:26.985Z,4.47
2023-05-19T06:54:55.257Z,3.53
2023-05-19T06:57:24.953Z,4.50
2023-05-19T06:59:54.235Z,5.30
2023-05-19T07:02:23.032Z,4.80
2023-05-19T07:04:52.761Z,5.10
2023-05-19T07:07:21.361Z,3.67
2023-05-19T07:09:49.641Z,4.50
2023-05-19T07:12:17.865Z,4.40
2023-05-19T07:14:47.475Z,4.90
2023-05-19T07:17:15.942Z,4.17
2023-05-19T07:19:44.181Z,5.60
2023-05-19T07:22:12.480Z,4.67
2023-05-19T07:24:40.762Z,5.60
2023-05-19T07:27:09.018Z,4.37
2023-05-19T07:29:37.478Z,4.43
2023-05-19T07:32:07.788Z,5.00
2023-05-19T07:34:36.753Z,3.53
2023-05-19T07:37:05.109Z,5.27
2023-05-19T07:39:33.413Z,3.80
2023-05-19T07:42:01.849Z,3.23
2023-05-19T07:44:31.346Z,3.50
2023-05-19T07:46:59.642Z,3.30
2023-05-19T07:49:29.471Z,3.97
2023-05-19T07:51:57.733Z,4.00
2023-05-19T07:54:26.135Z,3.53
2023-05-19T07:56:54.377Z,3.63
2023-05-19T07:59:24.320Z,4.07
2023-05-19T08:01:52.582Z,3.30
2023-05-19T08:04:21.035Z,3.40
2023-05-19T08:06:52.892Z,3.07
2023-05-19T08:09:21.738Z,3.70
2023-05-19T08:11:50.133Z,4.00
2023-05-19T08:14:19.495Z,2.93
2023-05-19T08:16:47.719Z,3.73
2023-05-19T08:19:16.107Z,3.73
2023-05-19T08:21:44.750Z,3.63
2023-05-19T08:24:14.569Z,3.97
2023-05-19T08:26:42.868Z,3.30
2023-05-19T08:29:11.112Z,3.57
2023-05-19T08:31:39.397Z,3.77
2023-05-19T08:34:07.707Z,3.53
2023-05-19T08:36:35.960Z,3.50
2023-05-19T08:39:04.250Z,3.27
2023-05-19T08:41:33.959Z,2.03
2023-05-19T08:44:02.272Z,3.87
2023-05-19T08:46:31.538Z,2.97
2023-05-19T08:49:01.030Z,3.77
2023-05-19T08:51:33.169Z,5.47
2023-05-19T08:54:06.266Z,3.47
2023-05-19T08:56:36.206Z,3.80
2023-05-19T08:59:04.588Z,3.40
2023-05-19T09:01:33.521Z,3.20
2023-05-19T09:04:02.024Z,3.50
2023-05-19T09:06:32.317Z,3.53
2023-05-19T09:09:00.734Z,2.97
2023-05-19T09:11:28.962Z,4.03
2023-05-19T09:13:58.552Z,3.53
2023-05-19T09:16:27.878Z,2.50
2023-05-19T09:19:00.499Z,3.00
2023-05-19T09:21:31.082Z,4.73
2023-05-19T09:23:59.850Z,5.60
2023-05-19T09:26:38.305Z,4.70
2023-05-19T09:29:13.855Z,3.30
2023-05-19T09:31:42.731Z,2.80
2023-05-19T09:34:14.811Z,3.80
2023-05-19T09:36:43.193Z,3.83
2023-05-19T09:39:15.375Z,4.63
2023-05-19T09:41:43.920Z,3.10
2023-05-19T09:44:16.348Z,3.13
2023-05-19T09:46:54.410Z,4.00
2023-05-19T09:49:23.017Z,3.60
2023-05-19T09:51:52.210Z,2.50
2023-05-19T09:54:21.773Z,3.30
2023-05-19T09:56:54.590Z,2.93
2023-05-19T09:59:26.089Z,3.50
2023-05-19T10:01:56.470Z,3.37
2023-05-19T10:04:25.344Z,3.30
2023-05-19T10:06:54.370Z,2.47
2023-05-19T10:09:24.933Z,3.80
2023-05-19T10:11:54.134Z,3.90
2023-05-19T10:14:25.574Z,3.13
2023-05-19T10:16:54.662Z,3.13
2023-05-19T10:19:24.252Z,4.13
2023-05-19T10:21:52.826Z,5.10
2023-05-19T10:24:21.413Z,3.20
2023-05-19T10:26:51.316Z,3.53
2023-05-19T10:29:21.126Z,3.50
2023-05-19T10:31:52.241Z,2.30
2023-05-19T10:34:37.386Z,3.73
2023-05-19T10:37:12.105Z,3.60
2023-05-19T10:39:43.152Z,3.67
2023-05-19T10:42:15.677Z,3.03
2023-05-19T10:44:55.681Z,3.30
2023-05-19T10:47:29.148Z,3.97
2023-05-19T10:49:57.584Z,3.60
2023-05-19T10:52:26.833Z,3.80
2023-05-19T10:54:55.325Z,2.20
2023-05-19T10:57:28.010Z,2.20
2023-05-19T10:59:57.416Z,2.23
2023-05-19T11:02:43.898Z,3.10
2023-05-19T11:05:14.889Z,2.70
2023-05-19T11:07:44.765Z,3.47
2023-05-19T11:10:13.627Z,3.87
2023-05-19T11:12:47.177Z,4.67
2023-05-19T11:15:21.276Z,3.67
2023-05-19T11:17:51.192Z,3.40
2023-05-19T11:20:23.680Z,2.73
2023-05-19T11:23:07.770Z,3.33
2023-05-19T11:25:42.889Z,3.00
2023-05-19T11:28:13.137Z,2.73
2023-05-19T11:30:43.356Z,2.93
2023-05-19T11:33:13.417Z,3.50
2023-05-19T11:35:42.150Z,2.80
2023-05-19T11:38:10.393Z,3.67
2023-05-19T11:40:38.919Z,4.60
2023-05-19T11:43:07.297Z,3.87
2023-05-19T11:45:36.383Z,3.10
2023-05-19T11:48:05.481Z,4.03
2023-05-19T11:50:36.960Z,2.60
2023-05-19T11:53:05.379Z,3.60
2023-05-19T11:55:34.091Z,4.13
2023-05-19T11:58:04.594Z,4.00
2023-05-19T12:00:38.132Z,1.70
2023-05-19T12:03:06.776Z,3.00
2023-05-19T12:05:42.067Z,2.60
2023-05-19T12:08:11.624Z,2.93
2023-05-19T12:10:40.466Z,3.70
2023-05-19T12:13:09.777Z,2.67
2023-05-19T12:15:38.894Z,2.87
2023-05-19T12:18:07.677Z,2.70
2023-05-19T12:20:37.746Z,3.20
2023-05-19T12:23:06.422Z,3.70
2023-05-19T12:25:35.299Z,4.57
2023-05-19T12:28:04.585Z,2.87
2023-05-19T12:30:34.412Z,3.20
2023-05-19T12:33:03.683Z,3.53
2023-05-19T12:35:33.470Z,3.90
2023-05-19T12:38:05.906Z,2.17
2023-05-19T12:40:36.008Z,3.70
2023-05-19T12:43:05.393Z,3.83
2023-05-19T12:45:36.091Z,2.80
2023-05-19T12:48:05.465Z,3.13
2023-05-19T12:50:35.281Z,3.20
2023-05-19T12:53:03.811Z,1.77
2023-05-19T12:55:38.461Z,3.00
2023-05-19T12:58:07.557Z,4.20
2023-05-19T13:00:36.165Z,4.40
2023-05-19T13:03:05.975Z,2.33
2023-05-19T13:05:35.347Z,4.30
2023-05-19T13:08:04.651Z,3.77
2023-05-19T13:10:35.516Z,3.20
2023-05-19T13:13:04.526Z,3.90
2023-05-19T13:15:34.480Z,3.47
2023-05-19T13:18:06.097Z,3.60
2023-05-19T13:20:34.858Z,4.57
2023-05-19T13:23:03.600Z,2.47
2023-05-19T13:25:32.748Z,3.17
2023-05-19T13:28:05.214Z,3.20
2023-05-19T13:30:33.968Z,4.03
2023-05-19T13:33:02.791Z,3.33
2023-05-19T13:35:36.703Z,4.67
2023-05-19T13:38:05.566Z,2.97
2023-05-19T13:40:34.737Z,2.80
2023-05-19T13:43:05.093Z,3.60
2023-05-19T13:45:33.422Z,3.50
2023-05-19T13:48:01.768Z,2.57
2023-05-19T13:50:30.616Z,4.10
2023-05-19T13:52:58.949Z,2.43
2023-05-19T13:55:27.515Z,4.00
2023-05-19T13:57:56.000Z,3.33
2023-05-19T14:00:25.802Z,4.40
2023-05-19T14:02:54.130Z,4.00
2023-05-19T14:05:22.589Z,3.70
2023-05-19T14:07:50.893Z,3.97
2023-05-19T14:10:19.186Z,2.87
2023-05-19T14:13:12.236Z,3.33
2023-05-19T14:15:38.030Z,2.73
2023-05-19T14:18:07.162Z,3.40
2023-05-19T14:20:36.050Z,3.00
2023-05-19T14:23:04.733Z,3.03
2023-05-19T14:25:33.122Z,2.20
2023-05-19T14:28:01.448Z,3.23
2023-05-19T14:30:30.028Z,3.37
2023-05-19T14:32:59.758Z,3.30
2023-05-19T14:35:28.103Z,4.27
2023-05-19T14:37:56.427Z,3.77
2023-05-19T14:40:24.720Z,4.47
2023-05-19T14:42:52.979Z,2.90
2023-05-19T14:45:21.324Z,3.10
2023-05-19T14:47:49.662Z,2.80
2023-05-19T14:50:19.404Z,3.00
2023-05-19T14:52:47.635Z,3.13
2023-05-19T14:55:17.522Z,3.70
2023-05-19T14:57:45.965Z,3.33
2023-05-19T15:00:14.752Z,3.13
2023-05-19T15:02:43.110Z,3.33
2023-05-19T15:05:11.736Z,3.10
2023-05-19T15:07:41.736Z,2.60
2023-05-19T15:10:10.400Z,2.83
2023-05-19T15:12:38.724Z,1.93
2023-05-19T15:15:07.559Z,3.00
2023-05-19T15:17:36.388Z,2.70
2023-05-19T15:20:04.656Z,3.37
2023-05-19T15:22:33.171Z,3.00
2023-05-19T15:25:02.769Z,3.47
2023-05-19T15:27:31.111Z,2.00
2023-05-19T15:29:59.649Z,3.63
2023-05-19T15:32:27.919Z,2.87
2023-05-19T15:34:56.175Z,2.40
2023-05-19T15:37:24.838Z,3.77
2023-05-19T15:39:54.791Z,3.83
2023-05-19T15:42:24.434Z,1.57
2023-05-19T15:44:52.634Z,3.27
2023-05-19T15:47:20.932Z,3.23
2023-05-19T15:49:49.119Z,2.87
2023-05-19T15:52:17.460Z,4.23
2023-05-19T15:54:45.955Z,3.50
2023-05-19T15:57:14.199Z,3.40
2023-05-19T15:59:43.846Z,3.43
2023-05-19T16:02:12.739Z,3.83
2023-05-19T16:04:41.118Z,2.43
2023-05-19T16:07:09.380Z,3.37
2023-05-19T16:09:37.685Z,3.60
2023-05-19T16:12:06.085Z,2.50
2023-05-19T16:14:36.508Z,2.83
2023-05-19T16:17:11.240Z,4.03
2023-05-19T16:19:39.540Z,2.90
2023-05-19T16:22:07.964Z,3.00
2023-05-19T16:24:36.238Z,2.10
2023-05-19T16:27:04.911Z,2.20
2023-05-19T16:29:33.207Z,3.47
2023-05-19T16:32:01.517Z,3.13
2023-05-19T16:34:31.223Z,2.60
2023-05-19T16:36:59.672Z,2.33
2023-05-19T16:39:28.050Z,3.30
2023-05-19T16:41:56.249Z,3.17
2023-05-19T16:44:24.660Z,2.47
2023-05-19T16:46:52.939Z,3.20
2023-05-19T16:49:21.323Z,3.40
2023-05-19T16:51:52.872Z,3.57
2023-05-19T16:54:21.920Z,3.60
2023-05-19T16:56:51.430Z,3.23
2023-05-19T16:59:19.683Z,3.57
2023-05-19T17:01:48.343Z,3.10
2023-05-19T17:04:16.673Z,3.00
2023-05-19T17:06:46.132Z,3.67
2023-05-19T17:09:15.723Z,1.50
2023-05-19T17:11:43.974Z,3.20
2023-05-19T17:14:12.200Z,3.60
2023-05-19T17:16:40.692Z,2.50
2023-05-19T17:19:09.040Z,2.77
2023-05-19T17:21:37.457Z,4.23
2023-05-19T17:24:05.769Z,2.93
2023-05-19T17:26:35.428Z,2.90
2023-05-19T17:29:03.695Z,2.57
2023-05-19T17:31:31.999Z,2.27
2023-05-19T17:34:00.218Z,2.57
2023-05-19T17:36:28.509Z,2.67
2023-05-19T17:38:56.935Z,2.40
2023-05-19T17:41:25.304Z,2.60
2023-05-19T17:43:56.092Z,2.37
2023-05-19T17:46:24.423Z,2.10
2023-05-19T17:48:52.744Z,1.17
2023-05-19T17:51:21.570Z,2.20
2023-05-19T17:53:50.632Z,3.20
2023-05-19T17:56:20.010Z,2.80
2023-05-19T17:58:49.377Z,2.27
2023-05-19T18:01:20.721Z,2.40
2023-05-19T18:03:50.085Z,2.63
2023-05-19T18:06:18.766Z,2.10
2023-05-19T18:08:50.457Z,2.60
2023-05-19T18:11:19.195Z,2.30
2023-05-19T18:13:47.964Z,2.53
2023-05-19T18:16:16.204Z,2.70
2023-05-19T18:18:50.458Z,1.40
2023-05-19T18:21:19.334Z,2.33
2023-05-19T18:23:48.320Z,2.10
2023-05-19T18:26:16.630Z,2.70
2023-05-19T18:28:44.862Z,2.77
2023-05-19T18:31:19.222Z,2.27
2023-05-19T18:33:49.119Z,2.67
2023-05-19T18:36:17.576Z,1.90
2023-05-19T18:38:47.289Z,2.40
2023-05-19T18:41:15.580Z,2.80
2023-05-19T18:43:43.828Z,2.00
2023-05-19T18:46:13.451Z,2.40
2023-05-19T18:48:42.010Z,2.13
2023-05-19T18:51:11.605Z,2.33
2023-05-19T18:53:39.847Z,2.63
2023-05-19T18:56:08.481Z,3.50
2023-05-19T18:58:36.888Z,2.53
2023-05-19T19:01:05.556Z,3.53
2023-05-19T19:03:33.830Z,2.77
2023-05-19T19:06:02.245Z,2.80
2023-05-19T19:08:31.860Z,2.70
2023-05-19T19:11:01.131Z,2.33
2023-05-19T19:13:29.832Z,2.17
2023-05-19T19:15:58.074Z,2.20
2023-05-19T19:18:26.904Z,2.23
2023-05-19T19:20:56.646Z,2.10
2023-05-19T19:23:25.118Z,2.23
2023-05-19T19:25:56.477Z,2.50
2023-05-19T19:28:24.899Z,2.33
2023-05-19T19:30:53.301Z,2.50
2023-05-19T19:33:21.654Z,2.40
2023-05-19T19:35:50.012Z,2.20
2023-05-19T19:38:22.830Z,3.17
2023-05-19T19:40:52.997Z,2.30
2023-05-19T19:43:22.699Z,2.60
2023-05-19T19:45:51.125Z,2.47
2023-05-19T19:48:19.392Z,3.20
2023-05-19T19:50:52.800Z,2.40
2023-05-19T19:53:21.030Z,2.10
2023-05-19T19:55:57.440Z,2.90
2023-05-19T19:58:27.349Z,2.33
2023-05-19T20:01:00.769Z,2.77
2023-05-19T20:03:29.401Z,3.30
2023-05-19T20:05:58.409Z,3.37
2023-05-19T20:08:26.802Z,2.40
2023-05-19T20:10:55.410Z,2.87
2023-05-19T20:13:23.630Z,2.30
2023-05-19T20:15:53.506Z,2.40
2023-05-19T20:18:21.777Z,2.80
2023-05-19T20:20:50.055Z,2.90
2023-05-19T20:23:18.374Z,2.63
2023-05-19T20:26:02.495Z,2.67
2023-05-19T20:28:35.767Z,2.07
2023-05-19T20:31:05.421Z,2.30
2023-05-19T20:33:33.696Z,2.77
2023-05-19T20:36:02.018Z,2.60
2023-05-19T20:38:30.359Z,2.67
2023-05-19T20:40:58.594Z,2.57
2023-05-19T20:43:26.925Z,2.77
2023-05-19T20:45:55.534Z,3.20
2023-05-19T20:48:25.299Z,2.67
2023-05-19T20:50:54.139Z,2.70
2023-05-19T20:53:23.109Z,2.93
2023-05-19T20:55:51.388Z,2.90
2023-05-19T20:58:19.716Z,3.23
2023-05-19T21:00:48.916Z,2.20
2023-05-19T21:03:17.210Z,2.53
2023-05-19T21:05:46.889Z,2.43
2023-05-19T21:08:15.152Z,2.83
2023-05-19T21:10:43.456Z,2.40
2023-05-19T21:13:11.746Z,2.73
2023-05-19T21:15:40.061Z,2.90
2023-05-19T21:18:09.170Z,2.87
2023-05-19T21:20:37.554Z,2.70
2023-05-19T21:23:09.814Z,3.43
2023-05-19T21:25:38.052Z,2.90
2023-05-19T21:28:06.470Z,2.70
2023-05-19T21:30:35.041Z,2.73
2023-05-19T21:33:03.554Z,3.00
2023-05-19T21:35:31.812Z,2.20
2023-05-19T21:38:08.904Z,2.67
2023-05-19T21:40:48.596Z,4.60
2023-05-19T21:43:16.881Z,3.07
2023-05-19T21:45:45.165Z,4.23
2023-05-19T21:48:13.455Z,2.73
2023-05-19T21:50:41.729Z,2.90
2023-05-19T21:53:10.009Z,2.27
2023-05-19T21:55:39.169Z,2.97
2023-05-19T21:58:08.881Z,2.90
2023-05-19T22:00:37.561Z,2.60
2023-05-19T22:03:06.647Z,3.83
2023-05-19T22:05:35.284Z,3.47
2023-05-19T22:08:03.698Z,2.40
2023-05-19T22:10:32.242Z,3.70
2023-05-19T22:13:00.721Z,2.70
2023-05-19T22:15:30.342Z,3.87
2023-05-19T22:17:58.706Z,3.87
2023-05-19T22:20:27.023Z,3.43
2023-05-19T22:22:55.296Z,3.47
2023-05-19T22:25:23.578Z,3.57
2023-05-19T22:27:51.854Z,2.90
2023-05-19T22:30:20.277Z,3.57
2023-05-19T22:32:49.963Z,3.87
2023-05-19T22:35:18.889Z,3.83
2023-05-19T22:37:47.190Z,4.00
2023-05-19T22:40:15.537Z,4.27
2023-05-19T22:42:43.783Z,3.70
2023-05-19T22:45:12.236Z,3.47
2023-05-19T22:47:40.612Z,4.37
2023-05-19T22:50:12.170Z,3.93
2023-05-19T22:52:40.857Z,3.40
2023-05-19T22:55:09.669Z,3.93
2023-05-19T22:57:37.945Z,3.67
2023-05-19T23:00:06.641Z,3.20
2023-05-19T23:02:34.897Z,3.97
2023-05-19T23:05:03.581Z,3.70
2023-05-19T23:07:33.186Z,3.20
2023-05-19T23:10:01.459Z,4.47
2023-05-19T23:12:29.742Z,3.53
2023-05-19T23:14:58.073Z,4.00
2023-05-19T23:17:26.380Z,3.83
2023-05-19T23:19:54.717Z,3.17
2023-05-19T23:22:22.939Z,3.40
2023-05-19T23:24:52.588Z,2.83
2023-05-19T23:27:20.842Z,2.73
2023-05-19T23:29:49.902Z,3.80
2023-05-19T23:32:18.166Z,3.57
2023-05-19T23:34:46.584Z,3.90
2023-05-19T23:37:14.878Z,3.47
2023-05-19T23:39:43.297Z,3.20
2023-05-19T23:42:13.122Z,3.10
2023-05-19T23:44:41.588Z,3.20
2023-05-19T23:47:09.903Z,3.20
2023-05-19T23:49:38.158Z,3.37
2023-05-19T23:52:06.615Z,3.07
2023-05-19T23:54:34.867Z,3.57
2023-05-19T23:57:03.257Z,3.37
2023-05-19T23:59:32.849Z,3.10
